createdAt,value
2018-02-04T00:04:03.067Z,95.1
2018-02-04T00:09:02.559Z,95.1
2018-02-04T00:14:03.226Z,95.7
2018-02-04T00:19:02.822Z,95.4
2018-02-04T00:24:02.648Z,95.4
2018-02-04T00:29:02.577Z,95.4
2018-02-04T00:34:02.581Z,95.9
2018-02-04T00:39:02.731Z,95.8
2018-02-04T00:44:02.573Z,95.5
2018-02-04T00:49:02.816Z,94.7
2018-02-04T00:54:02.699Z,94.7
2018-02-04T00:59:02.593Z,94.3
2018-02-04T01:04:02.804Z,94.9
2018-02-04T01:09:02.600Z,95.2
2018-02-04T01:14:02.604Z,94.6
2018-02-04T01:19:02.588Z,94
2018-02-04T01:24:02.599Z,94.5
2018-02-04T01:29:02.753Z,95.1
2018-02-04T01:34:02.651Z,94.5
2018-02-04T01:39:02.680Z,95.2
2018-02-04T01:44:06.763Z,94.6
2018-02-04T01:49:11.858Z,94.6
2018-02-04T01:54:06.721Z,93.5
2018-02-04T01:59:06.949Z,93.8
2018-02-04T02:04:06.778Z,93.5
2018-02-04T02:09:06.933Z,93.8
2018-02-04T02:14:06.794Z,94.1
2018-02-04T02:19:07.024Z,94.7
2018-02-04T02:24:06.944Z,94.9
2018-02-04T02:29:07.002Z,95.1
2018-02-04T02:34:07.001Z,94.7
2018-02-04T02:39:06.791Z,94.5
2018-02-04T02:44:06.804Z,94.6
2018-02-04T02:49:06.992Z,94.4
2018-02-04T02:54:07.032Z,94.4
2018-02-04T02:59:07.061Z,94.4
2018-02-04T03:04:07.022Z,94.6
2018-02-04T03:09:06.792Z,94.6
2018-02-04T03:14:06.851Z,94.1
2018-02-04T03:19:06.838Z,94.9
2018-02-04T03:24:07.011Z,94.9
2018-02-04T03:29:06.966Z,94.8
2018-02-04T03:34:06.878Z,94.3
2018-02-04T03:39:06.857Z,94.2
2018-02-04T03:44:06.875Z,94.7
2018-02-04T03:49:06.977Z,94.5
2018-02-04T03:54:07.016Z,95.2
2018-02-04T03:59:06.884Z,94.2
2018-02-04T04:04:06.900Z,93.7
2018-02-04T04:09:07.014Z,93.5
2018-02-04T04:14:06.950Z,93.7
2018-02-04T04:19:06.954Z,93.3
2018-02-04T04:24:06.971Z,93.4
2018-02-04T04:29:07.157Z,93.3
2018-02-04T04:34:06.969Z,93.3
2018-02-04T04:39:07.113Z,92.9
2018-02-04T04:44:07.164Z,93.9
2018-02-04T04:49:06.961Z,93
2018-02-04T04:54:06.976Z,93.4
2018-02-04T04:59:06.996Z,93.4
2018-02-04T05:04:07.027Z,93.7
2018-02-04T05:09:07.061Z,93.1
2018-02-04T05:14:07.034Z,93
2018-02-04T05:19:07.184Z,93.1
2018-02-04T05:24:07.016Z,92.3
2018-02-04T05:29:07.248Z,93.7
2018-02-04T05:34:07.001Z,93.6
2018-02-04T05:39:07.231Z,93.9
2018-02-04T05:44:07.158Z,93.9
2018-02-04T05:49:07.064Z,94
2018-02-04T05:54:07.039Z,94.2
2018-02-04T05:59:07.242Z,94.3
2018-02-04T06:04:07.074Z,93.9
2018-02-04T06:09:07.066Z,94.4
2018-02-04T06:14:07.262Z,94.4
2018-02-04T06:19:07.278Z,94.4
2018-02-04T06:24:07.111Z,93.8
2018-02-04T06:29:07.094Z,94.2
2018-02-04T06:34:07.099Z,94.8
2018-02-04T06:39:09.551Z,94.7
2018-02-04T06:44:14.641Z,94.5
2018-02-04T06:49:09.496Z,94.8
2018-02-04T06:54:09.771Z,94.9
2018-02-04T06:59:09.696Z,94.6
2018-02-04T07:04:09.622Z,94.5
2018-02-04T07:09:09.775Z,94.5
2018-02-04T07:14:09.722Z,95.2
2018-02-04T07:19:09.571Z,95.2
2018-02-04T07:24:09.592Z,95.7
2018-02-04T07:29:09.711Z,95.3
2018-02-04T07:34:09.586Z,95.6
2018-02-04T07:39:09.778Z,98.9
2018-02-04T07:44:09.539Z,100
2018-02-04T07:49:09.600Z,100
2018-02-04T07:54:09.596Z,96.8
2018-02-04T07:59:09.595Z,95.2
2018-02-04T08:04:09.605Z,95
2018-02-04T08:09:09.782Z,95.4
2018-02-04T08:14:09.649Z,95
2018-02-04T08:19:09.648Z,94.7
2018-02-04T08:24:09.891Z,94.1
2018-02-04T08:29:09.610Z,94.5
2018-02-04T08:34:09.783Z,93.4
2018-02-04T08:39:09.951Z,93.8
2018-02-04T08:44:09.872Z,93.3
2018-02-04T08:49:09.939Z,91.9
2018-02-04T08:54:09.885Z,91.9
2018-02-04T08:59:09.879Z,91.3
2018-02-04T09:04:09.876Z,90.4
2018-02-04T09:09:09.895Z,90.4
2018-02-04T09:14:09.881Z,89.9
2018-02-04T09:19:09.958Z,90
2018-02-04T09:24:09.902Z,89.6
2018-02-04T09:29:09.927Z,89.1
2018-02-04T09:34:09.919Z,89.6
2018-02-04T09:39:09.920Z,89.2
2018-02-04T09:44:09.908Z,87.8
2018-02-04T09:49:09.925Z,85.7
2018-02-04T09:54:09.909Z,86.6
2018-02-04T09:59:09.918Z,85.4
2018-02-04T10:04:09.933Z,85.1
2018-02-04T10:09:09.926Z,85.2
2018-02-04T10:14:09.932Z,85.2
2018-02-04T10:19:09.914Z,85.8
2018-02-04T10:24:09.952Z,86.2
2018-02-04T10:29:09.927Z,85
2018-02-04T10:34:09.936Z,84.2
2018-02-04T10:39:10.470Z,85.2
2018-02-04T10:44:09.938Z,85.7
2018-02-04T10:49:09.930Z,85.1
2018-02-04T10:54:09.951Z,83.4
2018-02-04T10:59:09.928Z,82.5
2018-02-04T11:04:09.978Z,82.7
2018-02-04T11:09:09.945Z,82.2
2018-02-04T11:14:09.951Z,79.1
2018-02-04T11:19:09.949Z,81.3
2018-02-04T11:24:09.946Z,80.9
2018-02-04T11:29:09.975Z,78.6
2018-02-04T11:34:09.985Z,81.3
2018-02-04T11:39:14.589Z,80.9
2018-02-04T11:44:19.678Z,79.4
2018-02-04T11:49:14.423Z,76.3
2018-02-04T11:54:14.488Z,76.9
2018-02-04T11:59:14.315Z,75.4
2018-02-04T12:04:14.307Z,76.7
2018-02-04T12:09:14.630Z,77.7
2018-02-04T12:14:14.717Z,77.2
2018-02-04T12:19:14.642Z,76.7
2018-02-04T12:24:14.875Z,75.5
2018-02-04T12:29:14.520Z,75.7
2018-02-04T12:34:14.693Z,75
2018-02-04T12:39:15.740Z,74.5
2018-02-04T12:44:14.587Z,75
2018-02-04T12:49:14.731Z,74.4
2018-02-04T12:54:14.576Z,74.3
2018-02-04T12:59:14.601Z,74.8
2018-02-04T13:04:14.558Z,74.2
2018-02-04T13:09:14.543Z,74.7
2018-02-04T13:14:14.548Z,74.3
2018-02-04T13:19:14.660Z,73.6
2018-02-04T13:24:14.553Z,72
2018-02-04T13:29:14.550Z,74.9
2018-02-04T13:34:14.602Z,75.6
2018-02-04T13:39:14.578Z,76.4
2018-02-04T13:44:15.922Z,75.7
2018-02-04T13:49:14.742Z,75.9
2018-02-04T13:54:14.508Z,75.3
2018-02-04T13:59:14.826Z,74.9
2018-02-04T14:04:14.860Z,75.3
2018-02-04T14:09:15.108Z,75.6
2018-02-04T14:14:14.560Z,76.6
2018-02-04T14:19:16.496Z,77.7
2018-02-04T14:24:14.591Z,77.9
2018-02-04T14:29:14.597Z,78.4
2018-02-04T14:34:14.613Z,78.3
2018-02-04T14:39:14.723Z,78.3
2018-02-04T14:44:14.812Z,78.4
2018-02-04T14:49:14.956Z,78.2
2018-02-04T14:54:14.823Z,79.5
2018-02-04T14:59:14.755Z,79.3
2018-02-04T15:04:15.027Z,80.1
2018-02-04T15:09:14.746Z,79.7
2018-02-04T15:14:14.669Z,80.3
2018-02-04T15:19:14.728Z,80.6
2018-02-04T15:24:14.743Z,80.6
2018-02-04T15:29:14.744Z,81.8
2018-02-04T15:34:14.941Z,81.3
2018-02-04T15:39:14.736Z,81.5
2018-02-04T15:44:14.755Z,81.9
2018-02-04T15:49:14.682Z,81.9
2018-02-04T15:54:14.729Z,82.5
2018-02-04T15:59:15.866Z,82.6
2018-02-04T16:04:17.158Z,83.1
2018-02-04T16:09:16.540Z,84.1
2018-02-04T16:14:16.728Z,84.8
2018-02-04T16:19:17.035Z,84.9
2018-02-04T16:24:16.923Z,84.9
2018-02-04T16:29:19.876Z,85.3
2018-02-04T16:34:14.807Z,85.2
2018-02-04T16:39:14.783Z,85.9
2018-02-04T16:44:14.904Z,86.8
2018-02-04T16:49:15.050Z,86.9
2018-02-04T16:54:14.908Z,86.8
2018-02-04T16:59:14.850Z,87.5
2018-02-04T17:04:15.036Z,87.1
2018-02-04T17:09:14.917Z,87
2018-02-04T17:14:15.119Z,88.3
2018-02-04T17:19:14.921Z,88.7
2018-02-04T17:24:14.929Z,87.7
2018-02-04T17:29:15.002Z,89
2018-02-04T17:34:15.177Z,89.3
2018-02-04T17:39:15.106Z,88.7
2018-02-04T17:44:15.331Z,90.1
2018-02-04T17:49:15.124Z,89.6
2018-02-04T17:54:15.265Z,89.8
2018-02-04T17:59:15.115Z,89.9
2018-02-04T18:04:15.130Z,91
2018-02-04T18:09:15.162Z,89.7
2018-02-04T18:14:15.275Z,90.2
2018-02-04T18:19:15.170Z,90.2
2018-02-04T18:24:15.112Z,90.3
2018-02-04T18:29:15.157Z,89.9
2018-02-04T18:34:15.161Z,91.7
2018-02-04T18:39:15.271Z,91.4
2018-02-04T18:44:15.160Z,91.3
2018-02-04T18:49:15.161Z,91.9
2018-02-04T18:54:15.297Z,90.8
2018-02-04T18:59:15.157Z,91
2018-02-04T19:04:15.237Z,91.4
2018-02-04T19:09:15.308Z,90.9
2018-02-04T19:14:15.105Z,92.2
2018-02-04T19:19:15.179Z,91
2018-02-04T19:24:15.188Z,91.4
2018-02-04T19:29:15.311Z,91.5
2018-02-04T19:34:15.200Z,91.5
2018-02-04T19:39:15.234Z,91.9
2018-02-04T19:44:15.223Z,92
2018-02-04T19:49:15.205Z,91.1
2018-02-04T19:54:15.210Z,91.4
2018-02-04T19:59:15.590Z,92
2018-02-04T20:04:15.373Z,92.3
2018-02-04T20:09:15.221Z,92.5
2018-02-04T20:14:15.319Z,91.5
2018-02-04T20:19:15.369Z,91.3
2018-02-04T20:24:15.241Z,92.2
2018-02-04T20:29:15.471Z,91.2
2018-02-04T20:34:15.503Z,92.1
2018-02-04T20:39:15.410Z,95.2
2018-02-04T20:44:15.293Z,93.2
2018-02-04T20:49:15.406Z,94
2018-02-04T20:54:15.412Z,94.9
2018-02-04T20:59:15.520Z,94.3
2018-02-04T21:04:15.248Z,94.9
2018-02-04T21:09:15.298Z,93.7
2018-02-04T21:14:15.312Z,94.2
2018-02-04T21:19:15.333Z,93.6
2018-02-04T21:24:19.402Z,92.9
2018-02-04T21:29:24.825Z,92.6
2018-02-04T21:34:19.631Z,92.3
2018-02-04T21:39:19.812Z,91.5
2018-02-04T21:44:19.642Z,91.9
2018-02-04T21:49:19.690Z,91.8
2018-02-04T21:54:19.696Z,91.9
2018-02-04T21:59:19.718Z,91.9
2018-02-04T22:04:19.723Z,91.7
2018-02-04T22:09:19.695Z,91.9
2018-02-04T22:14:19.705Z,91.9
2018-02-04T22:19:19.721Z,91.4
2018-02-04T22:24:19.879Z,91.6
2018-02-04T22:29:19.654Z,91.4
2018-02-04T22:34:19.716Z,91.8
2018-02-04T22:39:19.720Z,93.4
2018-02-04T22:44:19.704Z,93.8
2018-02-04T22:49:19.709Z,92
2018-02-04T22:54:19.728Z,93.8
2018-02-04T22:59:19.936Z,96.9
2018-02-04T23:04:19.975Z,95
2018-02-04T23:09:19.728Z,93.1
2018-02-04T23:14:19.728Z,94.5
2018-02-04T23:19:19.746Z,94
2018-02-04T23:24:19.739Z,95.7
2018-02-04T23:29:19.752Z,94.9
2018-02-04T23:34:19.775Z,94.7
2018-02-04T23:39:19.704Z,95.7
2018-02-04T23:44:19.875Z,94.6
2018-02-04T23:49:19.746Z,95.6
2018-02-04T23:54:19.971Z,95.3
2018-02-04T23:59:19.772Z,96.1
